createdAt,value
2018-08-17T00:00:56.433Z,15.37
2018-08-17T00:03:25.334Z,14.73
2018-08-17T00:05:54.357Z,14.10
2018-08-17T00:08:23.602Z,14.23
2018-08-17T00:10:53.168Z,15.80
2018-08-17T00:13:22.220Z,13.30
2018-08-17T00:15:51.160Z,19.80
2018-08-17T00:18:20.504Z,14.53
2018-08-17T00:20:49.461Z,13.00
2018-08-17T00:23:18.441Z,14.97
2018-08-17T00:25:47.541Z,18.43
2018-08-17T00:28:16.764Z,17.40
2018-08-17T00:30:45.734Z,16.13
2018-08-17T00:33:15.533Z,14.57
2018-08-17T00:35:44.515Z,14.50
2018-08-17T00:38:14.078Z,13.67
2018-08-17T00:40:43.321Z,16.60
2018-08-17T00:43:12.153Z,14.33
2018-08-17T00:45:41.678Z,16.70
2018-08-17T00:48:11.419Z,19.47
2018-08-17T00:50:40.373Z,17.23
2018-08-17T00:53:09.480Z,17.43
2018-08-17T00:55:38.572Z,18.10
2018-08-17T00:58:08.205Z,17.13
2018-08-17T01:00:37.407Z,14.93
2018-08-17T01:03:06.505Z,13.07
2018-08-17T01:05:35.395Z,16.53
2018-08-17T01:08:04.713Z,18.37
2018-08-17T01:10:34.482Z,16.17
2018-08-17T01:13:07.982Z,14.63
2018-08-17T01:15:37.560Z,15.80
2018-08-17T01:18:06.489Z,15.27
2018-08-17T01:20:35.550Z,16.03
2018-08-17T01:23:04.782Z,18.17
2018-08-17T01:25:34.046Z,18.90
2018-08-17T01:28:03.031Z,16.73
2018-08-17T01:30:32.022Z,15.27
2018-08-17T01:33:01.268Z,15.03
2018-08-17T01:35:30.108Z,21.23
2018-08-17T01:37:59.201Z,18.50
2018-08-17T01:40:28.338Z,17.93
2018-08-17T01:42:57.272Z,18.07
2018-08-17T01:45:26.264Z,20.17
2018-08-17T01:47:55.426Z,19.97
2018-08-17T01:50:24.984Z,18.47
2018-08-17T01:52:53.846Z,21.10
2018-08-17T01:55:22.821Z,18.90
2018-08-17T01:57:52.293Z,20.70
2018-08-17T02:00:21.950Z,21.33
2018-08-17T02:02:51.040Z,20.87
2018-08-17T02:05:20.097Z,21.53
2018-08-17T02:07:48.993Z,21.10
2018-08-17T02:10:18.080Z,21.47
2018-08-17T02:12:47.251Z,21.80
2018-08-17T02:15:16.318Z,22.87
2018-08-17T02:17:45.236Z,21.53
2018-08-17T02:20:14.210Z,22.00
2018-08-17T02:22:43.188Z,19.33
2018-08-17T02:25:12.286Z,19.37
2018-08-17T02:27:41.242Z,24.60
2018-08-17T02:30:10.224Z,21.53
2018-08-17T02:32:39.197Z,18.00
2018-08-17T02:35:08.281Z,18.40
2018-08-17T02:37:37.287Z,17.53
2018-08-17T02:40:06.398Z,15.43
2018-08-17T02:42:35.355Z,14.40
2018-08-17T02:45:04.983Z,17.03
2018-08-17T02:47:36.128Z,17.67
2018-08-17T02:50:06.897Z,16.50
2018-08-17T02:52:35.995Z,15.17
2018-08-17T02:55:05.182Z,16.63
2018-08-17T02:57:34.289Z,17.60
2018-08-17T03:00:03.296Z,17.10
2018-08-17T03:02:32.152Z,12.20
2018-08-17T03:05:01.742Z,18.40
2018-08-17T03:07:33.958Z,13.70
2018-08-17T03:10:03.629Z,16.50
2018-08-17T03:12:33.613Z,15.00
2018-08-17T03:15:03.016Z,15.60
2018-08-17T03:17:31.989Z,18.03
2018-08-17T03:20:01.075Z,17.83
2018-08-17T03:22:30.259Z,13.17
2018-08-17T03:24:59.294Z,14.50
2018-08-17T03:27:28.189Z,14.20
2018-08-17T03:29:57.689Z,15.10
2018-08-17T03:32:26.698Z,13.07
2018-08-17T03:34:55.879Z,15.13
2018-08-17T03:37:24.758Z,15.73
2018-08-17T03:39:53.966Z,14.23
2018-08-17T03:42:23.067Z,12.13
2018-08-17T03:44:52.060Z,14.03
2018-08-17T03:47:21.234Z,14.60
2018-08-17T03:49:50.146Z,15.50
2018-08-17T03:52:19.143Z,14.00
2018-08-17T03:54:48.181Z,15.30
2018-08-17T03:57:17.167Z,13.13
2018-08-17T03:59:46.064Z,14.67
2018-08-17T04:02:15.027Z,15.50
2018-08-17T04:04:44.553Z,14.60
2018-08-17T04:07:13.468Z,13.73
2018-08-17T04:09:43.486Z,14.63
2018-08-17T04:12:12.567Z,15.60
2018-08-17T04:14:41.585Z,14.57
2018-08-17T04:17:10.440Z,14.93
2018-08-17T04:19:40.084Z,17.63
2018-08-17T04:22:09.094Z,16.03
2018-08-17T04:24:38.637Z,13.10
2018-08-17T04:27:07.878Z,14.07
2018-08-17T04:29:36.676Z,14.03
2018-08-17T04:32:05.842Z,16.67
2018-08-17T04:34:35.352Z,11.67
2018-08-17T04:37:06.000Z,11.90
2018-08-17T04:39:34.894Z,10.93
2018-08-17T04:42:03.902Z,10.27
2018-08-17T04:44:33.742Z,11.57
2018-08-17T04:47:02.622Z,13.67
2018-08-17T04:49:31.693Z,15.57
2018-08-17T04:52:00.600Z,12.33
2018-08-17T04:54:29.663Z,12.73
2018-08-17T04:56:58.860Z,13.10
2018-08-17T04:59:27.693Z,9.57
2018-08-17T05:01:56.893Z,12.27
2018-08-17T05:04:26.003Z,10.30
2018-08-17T05:06:54.869Z,10.37
2018-08-17T05:09:23.784Z,12.40
2018-08-17T05:11:52.724Z,9.10
2018-08-17T05:14:22.295Z,8.90
2018-08-17T05:16:51.391Z,11.10
2018-08-17T05:19:20.537Z,6.80
2018-08-17T05:21:49.701Z,9.40
2018-08-17T05:24:18.804Z,6.47
2018-08-17T05:26:47.830Z,6.83
2018-08-17T05:29:17.097Z,7.40
2018-08-17T05:31:45.963Z,6.07
2018-08-17T05:34:14.871Z,7.23
2018-08-17T05:36:44.239Z,10.13
2018-08-17T05:39:13.219Z,12.67
2018-08-17T05:41:42.131Z,9.30
2018-08-17T05:44:11.007Z,10.50
2018-08-17T05:46:40.230Z,10.17
2018-08-17T05:49:09.842Z,12.13
2018-08-17T05:51:39.025Z,10.80
2018-08-17T05:54:08.177Z,10.50
2018-08-17T05:56:37.291Z,14.07
2018-08-17T05:59:06.405Z,9.47
2018-08-17T06:01:35.493Z,12.07
2018-08-17T06:04:04.531Z,9.20
2018-08-17T06:06:33.514Z,8.80
2018-08-17T06:09:02.668Z,13.60
2018-08-17T06:11:31.675Z,11.97
2018-08-17T06:14:00.762Z,10.03
2018-08-17T06:16:30.937Z,9.33
2018-08-17T06:18:59.915Z,11.07
2018-08-17T06:21:28.749Z,8.03
2018-08-17T06:23:57.959Z,8.37
2018-08-17T06:26:26.998Z,7.83
2018-08-17T06:28:56.104Z,12.73
2018-08-17T06:31:25.981Z,13.40
2018-08-17T06:33:55.578Z,10.17
2018-08-17T06:36:24.559Z,10.63
2018-08-17T06:38:54.251Z,9.70
2018-08-17T06:41:23.259Z,9.03
2018-08-17T06:43:52.667Z,11.47
2018-08-17T06:46:21.668Z,10.20
2018-08-17T06:48:50.510Z,10.87
2018-08-17T06:51:19.621Z,12.30
2018-08-17T06:53:48.646Z,13.83
2018-08-17T06:56:17.489Z,13.60
2018-08-17T06:58:46.340Z,11.40
2018-08-17T07:01:15.331Z,12.37
2018-08-17T07:03:44.820Z,12.13
2018-08-17T07:06:13.977Z,14.63
2018-08-17T07:08:44.111Z,13.40
2018-08-17T07:11:13.369Z,12.73
2018-08-17T07:13:42.445Z,10.80
2018-08-17T07:16:11.368Z,9.20
2018-08-17T07:18:40.370Z,10.53
2018-08-17T07:21:09.780Z,12.27
2018-08-17T07:23:39.408Z,8.50
2018-08-17T07:26:08.654Z,7.13
2018-08-17T07:28:38.553Z,9.03
2018-08-17T07:31:07.490Z,7.07
2018-08-17T07:33:37.670Z,7.97
2018-08-17T07:36:06.721Z,7.63
2018-08-17T07:38:35.621Z,8.87
2018-08-17T07:41:05.344Z,8.67
2018-08-17T07:43:34.968Z,6.80
2018-08-17T07:46:04.131Z,8.80
2018-08-17T07:48:33.101Z,7.30
2018-08-17T07:51:02.226Z,8.40
2018-08-17T07:53:31.231Z,7.60
2018-08-17T07:56:00.429Z,6.43
2018-08-17T07:58:29.580Z,6.17
2018-08-17T08:00:58.492Z,5.83
2018-08-17T08:03:27.604Z,7.40
2018-08-17T08:05:56.549Z,5.57
2018-08-17T08:08:26.040Z,8.90
2018-08-17T08:10:55.094Z,4.73
2018-08-17T08:13:24.026Z,5.60
2018-08-17T08:15:53.138Z,7.13
2018-08-17T08:18:22.196Z,5.10
2018-08-17T08:20:51.212Z,5.00
2018-08-17T08:23:27.076Z,5.53
2018-08-17T08:25:56.705Z,6.43
2018-08-17T08:28:25.562Z,4.40
2018-08-17T08:30:54.691Z,4.77
2018-08-17T08:33:23.683Z,4.37
2018-08-17T08:35:52.777Z,3.60
2018-08-17T08:38:21.664Z,6.97
2018-08-17T08:40:50.674Z,5.90
2018-08-17T08:43:19.881Z,5.77
2018-08-17T08:45:48.787Z,5.07
2018-08-17T08:50:50.488Z,6.47
2018-08-17T08:53:20.587Z,4.67
2018-08-17T08:55:50.037Z,5.87
2018-08-17T08:58:19.386Z,7.93
2018-08-17T09:00:48.837Z,6.53
2018-08-17T09:03:17.853Z,8.30
2018-08-17T09:05:46.814Z,8.83
2018-08-17T09:08:15.732Z,7.43
2018-08-17T09:10:45.453Z,6.17
2018-08-17T09:13:14.210Z,7.47
2018-08-17T09:15:43.274Z,6.83
2018-08-17T09:18:12.104Z,9.20
2018-08-17T09:20:41.755Z,5.43
2018-08-17T09:23:10.712Z,7.70
2018-08-17T09:25:39.735Z,7.23
2018-08-17T09:28:09.886Z,7.20
2018-08-17T09:30:38.985Z,5.97
2018-08-17T09:33:08.233Z,6.47
2018-08-17T09:35:37.662Z,7.13
2018-08-17T09:38:06.862Z,6.70
2018-08-17T09:40:35.684Z,6.00
2018-08-17T09:43:04.707Z,3.90
2018-08-17T09:45:33.747Z,5.60
2018-08-17T09:48:02.624Z,5.53
2018-08-17T09:50:31.598Z,6.60
2018-08-17T09:53:00.539Z,4.40
2018-08-17T09:55:29.273Z,6.53
2018-08-17T09:57:58.332Z,4.07
2018-08-17T10:00:32.662Z,4.10
2018-08-17T10:03:06.770Z,5.73
2018-08-17T10:05:37.994Z,6.03
2018-08-17T10:08:12.236Z,9.93
2018-08-17T10:10:42.197Z,6.10
2018-08-17T10:13:11.813Z,5.97
2018-08-17T10:15:40.682Z,5.70
2018-08-17T10:18:10.002Z,5.07
2018-08-17T10:20:38.837Z,4.00
2018-08-17T10:23:13.594Z,5.30
2018-08-17T10:25:42.371Z,5.50
2018-08-17T10:28:11.417Z,4.17
2018-08-17T10:30:40.353Z,4.93
2018-08-17T10:33:09.386Z,5.50
2018-08-17T10:35:38.290Z,5.50
2018-08-17T10:38:08.560Z,5.03
2018-08-17T10:40:37.517Z,4.33
2018-08-17T10:43:07.838Z,6.23
2018-08-17T10:45:38.881Z,5.43
2018-08-17T10:48:08.464Z,4.40
2018-08-17T10:50:37.262Z,5.90
2018-08-17T10:53:06.282Z,8.17
2018-08-17T10:55:41.299Z,5.37
2018-08-17T10:58:12.460Z,5.53
2018-08-17T11:00:41.588Z,5.90
2018-08-17T11:03:10.897Z,7.03
2018-08-17T11:05:40.180Z,5.23
2018-08-17T11:08:09.235Z,7.57
2018-08-17T11:10:38.104Z,6.57
2018-08-17T11:13:07.024Z,9.80
2018-08-17T11:15:35.892Z,5.70
2018-08-17T11:18:04.864Z,7.83
2018-08-17T11:20:34.461Z,6.17
2018-08-17T11:23:03.362Z,5.53
2018-08-17T11:25:32.350Z,5.40
2018-08-17T11:28:01.462Z,5.77
2018-08-17T11:30:30.762Z,6.17
2018-08-17T11:32:59.664Z,6.47
2018-08-17T11:35:28.541Z,6.67
2018-08-17T11:37:57.659Z,7.57
2018-08-17T11:40:26.731Z,5.17
2018-08-17T11:42:55.663Z,7.07
2018-08-17T11:45:25.778Z,5.30
2018-08-17T11:47:55.525Z,5.60
2018-08-17T11:50:25.639Z,7.20
2018-08-17T11:52:58.600Z,7.87
2018-08-17T11:55:32.451Z,5.57
2018-08-17T11:58:02.478Z,5.93
2018-08-17T12:00:35.672Z,6.77
2018-08-17T12:03:04.998Z,6.97
2018-08-17T12:05:34.059Z,7.33
2018-08-17T12:08:03.096Z,6.87
2018-08-17T12:10:32.077Z,6.63
2018-08-17T12:13:06.715Z,7.00
2018-08-17T12:15:49.134Z,7.17
2018-08-17T12:18:18.024Z,7.27
2018-08-17T12:20:47.164Z,8.57
2018-08-17T12:23:51.994Z,6.93
2018-08-17T12:26:43.984Z,11.00
2018-08-17T12:29:13.258Z,7.93
2018-08-17T12:31:42.178Z,8.57
2018-08-17T12:34:11.152Z,9.53
2018-08-17T12:36:40.151Z,9.40
2018-08-17T12:39:10.919Z,10.47
2018-08-17T12:41:39.774Z,7.70
2018-08-17T12:44:08.892Z,8.17
2018-08-17T12:46:37.922Z,9.50
2018-08-17T12:49:07.017Z,8.87
2018-08-17T12:51:36.670Z,6.57
2018-08-17T12:54:05.760Z,9.30
2018-08-17T12:56:35.112Z,8.33
2018-08-17T12:59:04.266Z,10.87
2018-08-17T13:01:33.208Z,7.90
2018-08-17T13:04:02.851Z,7.00
2018-08-17T13:06:32.213Z,7.30
2018-08-17T13:09:01.432Z,8.33
2018-08-17T13:11:31.010Z,8.57
2018-08-17T13:14:07.264Z,10.77
2018-08-17T13:16:38.147Z,10.40
2018-08-17T13:19:07.224Z,14.67
2018-08-17T13:21:36.522Z,9.60
2018-08-17T13:24:05.644Z,9.30
2018-08-17T13:26:34.836Z,12.03
2018-08-17T13:29:03.890Z,7.87
2018-08-17T13:31:33.075Z,9.73
2018-08-17T13:34:01.951Z,8.97
2018-08-17T13:36:31.371Z,9.83
2018-08-17T13:39:00.296Z,9.30
2018-08-17T13:41:29.442Z,19.20
2018-08-17T13:43:58.951Z,13.43
2018-08-17T13:46:28.022Z,12.30
2018-08-17T13:48:57.036Z,10.37
2018-08-17T13:51:26.142Z,9.73
2018-08-17T13:53:55.745Z,10.20
2018-08-17T13:56:24.851Z,8.03
2018-08-17T13:58:53.736Z,7.87
2018-08-17T14:01:23.164Z,8.50
2018-08-17T14:03:52.868Z,7.97
2018-08-17T14:06:22.587Z,10.93
2018-08-17T14:08:51.442Z,7.33
2018-08-17T14:11:20.787Z,12.80
2018-08-17T14:13:49.965Z,9.80
2018-08-17T14:16:19.670Z,12.90
2018-08-17T14:18:50.472Z,9.87
2018-08-17T14:21:19.329Z,9.70
2018-08-17T14:23:48.915Z,9.73
2018-08-17T14:26:17.856Z,10.47
2018-08-17T14:28:46.802Z,10.47
2018-08-17T14:31:15.896Z,9.73
2018-08-17T14:33:44.903Z,8.27
2018-08-17T14:36:18.020Z,9.33
2018-08-17T14:38:47.704Z,13.43
2018-08-17T14:41:16.712Z,8.30
2018-08-17T14:43:45.760Z,7.60
2018-08-17T14:46:14.768Z,9.30
2018-08-17T14:48:43.786Z,11.87
2018-08-17T14:51:12.795Z,7.37
2018-08-17T14:53:41.883Z,8.40
2018-08-17T14:56:10.589Z,6.30
2018-08-17T14:58:39.308Z,8.70
2018-08-17T15:01:08.091Z,5.70
2018-08-17T15:03:36.852Z,9.77
2018-08-17T15:06:05.665Z,7.70
2018-08-17T15:08:34.766Z,4.63
2018-08-17T15:14:21.628Z,4.60
2018-08-17T15:16:50.588Z,6.17
2018-08-17T15:19:19.553Z,5.07
2018-08-17T15:21:48.717Z,3.30
2018-08-17T15:24:17.634Z,5.50
2018-08-17T15:26:46.441Z,4.50
2018-08-17T15:29:15.947Z,5.17
2018-08-17T15:31:44.946Z,5.47
2018-08-17T15:34:14.468Z,6.27
2018-08-17T15:36:43.403Z,6.27
2018-08-17T15:39:12.329Z,4.50
2018-08-17T15:41:43.549Z,4.77
2018-08-17T15:44:30.288Z,8.17
2018-08-17T15:46:59.419Z,3.50
2018-08-17T15:49:37.013Z,4.33
2018-08-17T15:52:06.923Z,3.60
2018-08-17T15:54:36.602Z,3.12
2018-08-17T15:57:05.638Z,6.57
2018-08-17T15:59:34.519Z,3.83
2018-08-17T16:02:03.988Z,3.87
2018-08-17T16:04:33.082Z,3.93
2018-08-17T16:07:02.024Z,9.60
2018-08-17T16:09:31.018Z,2.33
2018-08-17T16:12:00.182Z,4.70
2018-08-17T16:14:29.164Z,6.57
2018-08-17T16:16:58.277Z,2.13
2018-08-17T16:19:28.177Z,5.10
2018-08-17T16:21:57.241Z,3.67
2018-08-17T16:24:26.420Z,3.47
2018-08-17T16:26:55.344Z,3.50
2018-08-17T16:29:24.393Z,5.20
2018-08-17T16:31:53.400Z,4.43
2018-08-17T16:34:22.403Z,3.43
2018-08-17T16:36:52.323Z,4.23
2018-08-17T16:39:21.965Z,3.57
2018-08-17T16:41:50.930Z,4.40
2018-08-17T16:44:19.904Z,5.70
2018-08-17T16:46:48.845Z,5.40
2018-08-17T16:49:17.928Z,3.80
2018-08-17T16:51:46.809Z,4.20
2018-08-17T16:54:16.441Z,4.60
2018-08-17T16:56:45.441Z,4.60
2018-08-17T16:59:14.448Z,4.53
2018-08-17T17:01:43.664Z,4.97
2018-08-17T17:04:12.659Z,3.92
2018-08-17T17:06:41.545Z,3.05
2018-08-17T17:09:10.417Z,4.03
2018-08-17T17:11:40.372Z,3.50
2018-08-17T17:14:09.568Z,4.25
2018-08-17T17:16:44.482Z,2.80
2018-08-17T17:19:16.116Z,3.20
2018-08-17T17:21:46.398Z,6.07
2018-08-17T17:24:15.555Z,3.37
2018-08-17T17:26:44.694Z,3.90
2018-08-17T17:29:13.777Z,3.30
2018-08-17T17:31:43.667Z,3.77
2018-08-17T17:34:12.602Z,5.50
2018-08-17T17:36:41.932Z,4.13
2018-08-17T17:39:12.808Z,5.05
2018-08-17T17:41:42.098Z,4.05
2018-08-17T17:44:11.211Z,3.12
2018-08-17T17:46:40.868Z,2.67
2018-08-17T17:49:10.419Z,3.15
2018-08-17T17:51:39.596Z,2.12
2018-08-17T17:54:08.776Z,4.60
2018-08-17T17:56:38.227Z,4.17
2018-08-17T17:59:14.722Z,4.37
2018-08-17T18:01:43.785Z,4.10
2018-08-17T18:04:13.584Z,5.62
2018-08-17T18:06:42.536Z,4.42
2018-08-17T18:09:11.498Z,4.05
2018-08-17T18:11:40.867Z,4.85
2018-08-17T18:14:09.924Z,4.43
2018-08-17T18:16:38.845Z,3.52
2018-08-17T18:19:08.474Z,2.03
2018-08-17T18:21:37.871Z,3.90
2018-08-17T18:24:11.957Z,5.33
2018-08-17T18:26:50.428Z,4.37
2018-08-17T18:29:19.814Z,4.00
2018-08-17T18:31:48.679Z,3.03
2018-08-17T18:34:17.753Z,4.10
2018-08-17T18:36:46.692Z,2.43
2018-08-17T18:39:16.944Z,4.10
2018-08-17T18:41:45.990Z,4.73
2018-08-17T18:44:15.061Z,6.07
2018-08-17T18:46:43.996Z,5.60
2018-08-17T18:49:13.135Z,6.93
2018-08-17T18:51:42.104Z,4.43
2018-08-17T18:54:11.560Z,4.30
2018-08-17T18:56:40.951Z,6.27
2018-08-17T18:59:10.151Z,3.53
2018-08-17T19:01:39.091Z,3.40
2018-08-17T19:04:08.028Z,4.50
2018-08-17T19:06:36.913Z,3.13
2018-08-17T19:09:08.293Z,3.50
2018-08-17T19:11:37.338Z,8.53
2018-08-17T19:14:07.383Z,6.97
2018-08-17T19:16:36.362Z,3.50
2018-08-17T19:19:06.932Z,6.17
2018-08-17T19:21:35.795Z,4.30
2018-08-17T19:24:10.232Z,4.83
2018-08-17T19:26:39.430Z,6.47
2018-08-17T19:29:08.464Z,3.60
2018-08-17T19:31:40.509Z,4.90
2018-08-17T19:34:09.676Z,5.93
2018-08-17T19:36:39.322Z,4.53
2018-08-17T19:39:08.985Z,4.60
2018-08-17T19:41:43.369Z,6.87
2018-08-17T19:44:12.863Z,4.90
2018-08-17T19:46:41.707Z,5.77
2018-08-17T19:49:10.720Z,4.90
2018-08-17T19:51:39.924Z,8.40
2018-08-17T19:54:08.914Z,3.50
2018-08-17T19:56:38.596Z,3.23
2018-08-17T19:59:07.693Z,5.40
2018-08-17T20:01:37.342Z,7.90
2018-08-17T20:04:06.848Z,5.90
2018-08-17T20:06:35.897Z,6.80
2018-08-17T20:09:07.346Z,4.27
2018-08-17T20:11:37.211Z,3.73
2018-08-17T20:14:06.157Z,3.63
2018-08-17T20:16:35.212Z,4.97
2018-08-17T20:19:04.281Z,5.03
2018-08-17T20:21:34.707Z,8.77
2018-08-17T20:24:03.643Z,6.43
2018-08-17T20:26:33.215Z,4.57
2018-08-17T20:29:01.956Z,5.87
2018-08-17T20:31:30.789Z,4.93
2018-08-17T20:34:00.501Z,5.57
2018-08-17T20:36:30.201Z,7.27
2018-08-17T20:38:59.308Z,7.53
2018-08-17T20:41:28.309Z,7.07
2018-08-17T20:43:58.078Z,8.10
2018-08-17T20:46:27.029Z,5.10
2018-08-17T20:48:55.867Z,7.47
2018-08-17T20:51:26.496Z,8.10
2018-08-17T20:53:58.355Z,5.87
2018-08-17T20:56:27.767Z,7.13
2018-08-17T20:58:57.586Z,10.30
2018-08-17T21:01:26.514Z,5.43
2018-08-17T21:03:55.631Z,7.67
2018-08-17T21:06:24.399Z,6.23
2018-08-17T21:08:53.360Z,5.37
2018-08-17T21:11:22.378Z,3.90
2018-08-17T21:13:51.289Z,7.07
2018-08-17T21:16:20.354Z,7.70
2018-08-17T21:18:49.360Z,6.83
2018-08-17T21:21:18.978Z,5.50
2018-08-17T21:23:48.156Z,8.47
2018-08-17T21:26:17.746Z,6.17
2018-08-17T21:28:46.788Z,6.63
2018-08-17T21:31:38.625Z,5.97
2018-08-17T21:34:07.829Z,5.57
2018-08-17T21:36:36.964Z,6.90
2018-08-17T21:39:14.781Z,7.00
2018-08-17T21:41:45.082Z,7.17
2018-08-17T21:44:17.621Z,4.70
2018-08-17T21:46:52.639Z,6.70
2018-08-17T21:49:22.457Z,6.70
2018-08-17T21:51:55.536Z,4.50
2018-08-17T21:54:24.906Z,5.50
2018-08-17T21:56:54.652Z,3.60
2018-08-17T21:59:23.777Z,4.80
2018-08-17T22:01:53.468Z,5.43
2018-08-17T22:04:22.468Z,5.50
2018-08-17T22:06:51.459Z,5.97
2018-08-17T22:09:31.493Z,4.10
2018-08-17T22:12:00.522Z,6.23
2018-08-17T22:14:29.361Z,6.37
2018-08-17T22:16:58.358Z,5.57
2018-08-17T22:19:37.930Z,4.70
2018-08-17T22:22:08.408Z,7.57
2018-08-17T22:24:43.056Z,4.83
2018-08-17T22:27:13.383Z,4.70
2018-08-17T22:29:44.136Z,5.53
2018-08-17T22:32:13.256Z,6.70
2018-08-17T22:34:42.416Z,6.20
2018-08-17T22:37:11.916Z,5.17
2018-08-17T22:39:41.161Z,6.70
2018-08-17T22:44:42.893Z,5.20
2018-08-17T22:47:30.094Z,5.50
2018-08-17T22:50:00.516Z,5.67
2018-08-17T22:52:33.188Z,4.57
2018-08-17T22:55:04.154Z,4.80
2018-08-17T22:57:33.303Z,4.30
2018-08-17T23:00:14.585Z,3.83
2018-08-17T23:02:44.632Z,5.10
2018-08-17T23:05:16.409Z,5.57
2018-08-17T23:07:45.549Z,4.07
2018-08-17T23:10:17.751Z,7.50
2018-08-17T23:12:47.744Z,5.20
2018-08-17T23:15:16.812Z,6.10
2018-08-17T23:17:48.277Z,5.03
2018-08-17T23:20:21.448Z,6.23
2018-08-17T23:22:52.413Z,4.87
2018-08-17T23:25:21.934Z,5.97
2018-08-17T23:27:51.515Z,6.20
2018-08-17T23:30:20.652Z,5.43
2018-08-17T23:32:49.879Z,7.13
2018-08-17T23:35:19.558Z,6.47
2018-08-17T23:37:48.861Z,6.23
2018-08-17T23:40:18.070Z,5.80
2018-08-17T23:42:48.210Z,4.77
2018-08-17T23:45:18.060Z,6.37
2018-08-17T23:47:48.185Z,4.70
2018-08-17T23:50:18.276Z,6.70
2018-08-17T23:52:48.844Z,3.93
2018-08-17T23:55:18.653Z,5.27
2018-08-17T23:57:48.885Z,6.00
